Waitemata, New Zealand
Current Conditions -  °F | °C
As of 10:00 PM on Sunday 23 Nov 2014 (Local Time) from NZAA Reporting Station
Overcast Overcast  
Wind Chill: 59°   Ceiling: 2400
Heat Index: 59°   Visibility: 6mi
Dew Point: 52°   Wind: 6mph
Humidity: 77%   Direction: 260°W
Pressure: 30.12"   Gusts: NA
Location:  36.83°S, 174.67°E
Report Text: NZAA 231000Z AUTO 26005KT 9999 OVC024/// 15/11 Q1020 NOSIG
Loading
Personal Weather Stations






























Interactive Weather Map New forecast layout! Learn more

10-Day Weather Forecast

Advertisements
Track Severe Weather on mobile